Time;durP1;ratioP1;P1;durP2;ratioP2;P2;SDS_P1;SDS_P2;PMS_P1;PMS_P2;Temp;Humidity;BMP_temperature;BMP_pressure;BME280_temperature;BME280_humidity;BME280_pressure;Samples;Min_cycle;Max_cycle;Signal;HPM_P1;HPM_P2
2023/09/07 00:00:41;;;;;;;7.82;4.95;;;;;;;19.52;100.00;101834.75;5071871;28;20082;-55
2023/09/07 00:03:11;;;;;;;7.15;4.40;;;;;;;19.42;100.00;101826.69;5069100;28;20048;-54
2023/09/07 00:05:39;;;;;;;10.27;4.72;;;;;;;19.40;100.00;101834.00;5069192;28;20114;-55
2023/09/07 00:08:08;;;;;;;8.18;4.72;;;;;;;19.33;100.00;101827.50;5066236;28;20060;-54
2023/09/07 00:10:36;;;;;;;11.00;4.80;;;;;;;19.38;100.00;101827.13;5072815;28;20040;-55
2023/09/07 00:13:05;;;;;;;7.18;4.85;;;;;;;19.32;100.00;101822.31;5073300;28;20044;-55
2023/09/07 00:15:38;;;;;;;7.97;5.03;;;;;;;19.32;100.00;101824.97;5075271;28;20040;-54
2023/09/07 00:18:06;;;;;;;7.47;5.07;;;;;;;19.27;100.00;101827.22;5092315;28;20154;-55
2023/09/07 00:20:37;;;;;;;10.35;5.13;;;;;;;19.25;100.00;101819.31;5077753;28;20080;-55
2023/09/07 00:23:06;;;;;;;9.07;5.60;;;;;;;19.21;100.00;101829.44;5067824;28;20044;-55
2023/09/07 00:25:34;;;;;;;9.48;4.72;;;;;;;19.20;100.00;101830.41;5072843;28;20119;-55
2023/09/07 00:28:06;;;;;;;8.93;5.15;;;;;;;19.13;100.00;101823.91;5072875;28;20049;-55
2023/09/07 00:30:35;;;;;;;9.35;5.55;;;;;;;19.07;100.00;101811.97;5069815;28;20061;-54
2023/09/07 00:33:04;;;;;;;6.97;4.82;;;;;;;18.98;100.00;101818.09;5068091;28;20040;-55
2023/09/07 00:35:32;;;;;;;7.57;4.60;;;;;;;18.95;100.00;101817.50;5068452;28;20074;-54
2023/09/07 00:38:02;;;;;;;7.68;4.80;;;;;;;18.94;100.00;101816.66;5066693;28;20546;-55
2023/09/07 00:40:31;;;;;;;8.57;4.72;;;;;;;18.88;100.00;101810.03;5070552;28;20040;-55
2023/09/07 00:43:00;;;;;;;9.30;4.93;;;;;;;18.78;100.00;101809.09;5068757;28;20380;-55
2023/09/07 00:45:29;;;;;;;9.82;5.28;;;;;;;18.79;100.00;101810.78;5068672;28;20052;-55
2023/09/07 00:47:58;;;;;;;8.00;4.53;;;;;;;18.74;100.00;101813.81;5068740;28;20524;-55
2023/09/07 00:50:26;;;;;;;9.90;4.90;;;;;;;18.70;100.00;101806.22;5067872;28;20049;-55
2023/09/07 00:52:55;;;;;;;8.90;4.93;;;;;;;18.59;100.00;101812.47;5069329;28;20520;-54
2023/09/07 00:55:25;;;;;;;7.15;4.75;;;;;;;18.59;100.00;101805.31;5067870;28;21013;-55
2023/09/07 00:57:56;;;;;;;7.18;4.53;;;;;;;18.53;100.00;101813.00;5067221;28;20057;-56
2023/09/07 01:00:24;;;;;;;9.82;4.70;;;;;;;18.50;100.00;101808.75;5068408;28;20088;-55
2023/09/07 01:02:53;;;;;;;9.13;4.90;;;;;;;18.41;100.00;101801.53;5068185;28;20064;-55
2023/09/07 01:05:25;;;;;;;9.02;4.70;;;;;;;18.41;100.00;101797.03;5068295;28;20110;-55
2023/09/07 01:07:58;;;;;;;8.77;4.40;;;;;;;18.38;100.00;101799.97;5066429;28;20555;-55
2023/09/07 01:10:28;;;;;;;8.25;4.78;;;;;;;18.40;100.00;101803.34;5068914;28;20511;-55
2023/09/07 01:12:57;;;;;;;8.40;5.20;;;;;;;18.27;100.00;101800.03;5068264;28;20068;-55
2023/09/07 01:15:25;;;;;;;9.57;5.00;;;;;;;18.23;100.00;101795.94;5069137;28;20510;-55
2023/09/07 01:17:55;;;;;;;8.55;4.78;;;;;;;18.25;100.00;101796.63;5071977;28;20047;-55
2023/09/07 01:20:40;;;;;;;8.50;5.60;;;;;;;18.18;100.00;101801.63;5067546;28;20048;-55
2023/09/07 01:23:12;;;;;;;8.07;4.80;;;;;;;18.22;100.00;101804.88;5064771;28;20527;-55
2023/09/07 01:25:41;;;;;;;8.95;5.65;;;;;;;18.18;100.00;101798.13;5071072;28;20052;-54
2023/09/07 01:28:10;;;;;;;8.38;5.75;;;;;;;18.11;100.00;101800.44;5080621;28;20444;-53
2023/09/07 01:30:39;;;;;;;8.98;5.75;;;;;;;18.10;100.00;101793.41;5072791;28;20134;-55
2023/09/07 01:33:08;;;;;;;8.45;5.25;;;;;;;18.11;100.00;101795.13;5066565;28;20052;-55
2023/09/07 01:35:39;;;;;;;7.80;5.20;;;;;;;18.07;100.00;101797.19;5050842;28;20064;-55
2023/09/07 01:38:07;;;;;;;10.85;5.65;;;;;;;18.03;100.00;101790.41;5074576;28;20044;-56
2023/09/07 01:40:37;;;;;;;10.73;5.50;;;;;;;17.95;100.00;101792.03;5091154;28;20047;-60
2023/09/07 01:43:06;;;;;;;8.05;5.15;;;;;;;17.90;100.00;101784.38;5071371;28;20098;-55
2023/09/07 01:45:34;;;;;;;7.97;5.57;;;;;;;17.99;100.00;101788.97;5090193;28;20544;-62
2023/09/07 01:48:03;;;;;;;9.52;5.57;;;;;;;17.91;100.00;101796.72;5075417;28;20051;-55
2023/09/07 01:50:32;;;;;;;7.55;5.15;;;;;;;17.85;100.00;101799.88;5059137;28;20053;-61
2023/09/07 01:53:03;;;;;;;8.75;5.53;;;;;;;17.81;100.00;101795.78;5052505;28;20076;-61
2023/09/07 01:55:32;;;;;;;7.80;5.43;;;;;;;17.77;100.00;101797.84;5056563;28;20044;-61
2023/09/07 01:58:02;;;;;;;8.52;5.38;;;;;;;17.81;100.00;101790.47;5069585;28;20051;-55
2023/09/07 02:00:33;;;;;;;8.52;5.70;;;;;;;17.78;100.00;101798.66;5079062;28;20059;-55
2023/09/07 02:03:02;;;;;;;8.20;5.88;;;;;;;17.78;100.00;101796.00;5076499;28;20127;-55
2023/09/07 02:05:32;;;;;;;11.02;6.30;;;;;;;17.76;100.00;101796.13;5070359;28;20443;-55
2023/09/07 02:08:01;;;;;;;10.02;6.18;;;;;;;17.77;100.00;101797.00;5067994;28;20459;-55
2023/09/07 02:10:30;;;;;;;12.38;6.80;;;;;;;17.73;100.00;101804.38;5078659;28;20151;-54
2023/09/07 02:13:03;;;;;;;11.00;6.90;;;;;;;17.73;100.00;101793.75;5067425;28;20476;-55
2023/09/07 02:15:33;;;;;;;11.35;6.72;;;;;;;17.65;100.00;101793.50;5081046;28;20053;-55
2023/09/07 02:18:03;;;;;;;9.55;6.82;;;;;;;17.74;100.00;101798.09;5070742;28;20048;-55
2023/09/07 02:20:32;;;;;;;10.27;6.38;;;;;;;17.76;100.00;101787.31;5073918;28;20047;-55
2023/09/07 02:23:01;;;;;;;9.25;6.20;;;;;;;17.67;100.00;101794.22;5050542;28;20095;-54
2023/09/07 02:25:30;;;;;;;10.07;6.65;;;;;;;17.76;100.00;101790.00;5058308;28;20065;-55
2023/09/07 02:27:59;;;;;;;10.10;6.35;;;;;;;17.68;100.00;101790.59;5085805;28;20055;-55
2023/09/07 02:30:29;;;;;;;10.45;6.03;;;;;;;17.68;100.00;101788.81;5070046;28;20086;-54
2023/09/07 02:32:58;;;;;;;9.93;6.43;;;;;;;17.60;100.00;101785.91;5072850;28;20080;-55
2023/09/07 02:35:26;;;;;;;11.13;6.80;;;;;;;17.61;100.00;101787.59;5083356;28;20043;-55
2023/09/07 02:37:55;;;;;;;9.57;6.40;;;;;;;17.62;100.00;101786.63;5068841;28;20048;-56
2023/09/07 02:40:24;;;;;;;9.82;6.45;;;;;;;17.67;100.00;101792.41;5065481;28;20087;-55
2023/09/07 02:42:52;;;;;;;9.95;6.70;;;;;;;17.61;100.00;101789.41;5067224;28;20048;-55
2023/09/07 02:45:21;;;;;;;10.40;6.50;;;;;;;17.60;100.00;101796.56;5067951;28;20086;-54
2023/09/07 02:47:52;;;;;;;9.60;6.28;;;;;;;17.54;100.00;101792.53;5050499;28;20045;-53
2023/09/07 02:50:20;;;;;;;9.88;6.45;;;;;;;17.53;100.00;101796.19;5048477;28;20045;-55
2023/09/07 02:52:49;;;;;;;10.98;7.25;;;;;;;17.54;100.00;101792.53;5044970;28;20514;-55
2023/09/07 02:55:20;;;;;;;8.63;6.07;;;;;;;17.46;100.00;101791.47;5059608;28;20048;-54
2023/09/07 02:57:48;;;;;;;9.55;6.28;;;;;;;17.42;100.00;101798.00;5071999;28;20131;-54
2023/09/07 03:00:17;;;;;;;8.25;6.00;;;;;;;17.38;100.00;101792.94;5074386;28;20517;-55
2023/09/07 03:02:46;;;;;;;12.35;6.88;;;;;;;17.37;100.00;101793.91;5069531;28;20543;-55
2023/09/07 03:05:16;;;;;;;9.30;6.57;;;;;;;17.32;100.00;101798.72;5071178;28;20400;-55
2023/09/07 03:07:46;;;;;;;12.13;6.70;;;;;;;17.30;100.00;101799.81;5068291;28;20032;-55
2023/09/07 03:10:15;;;;;;;12.32;6.38;;;;;;;17.29;100.00;101795.44;5071061;28;20044;-55
2023/09/07 03:12:43;;;;;;;10.00;6.32;;;;;;;17.21;100.00;101801.41;5074298;28;20458;-55
2023/09/07 03:15:12;;;;;;;10.00;6.40;;;;;;;17.19;100.00;101803.31;5074342;28;20479;-55
2023/09/07 03:17:41;;;;;;;10.45;7.70;;;;;;;17.10;100.00;101796.03;5073720;28;20124;-54
2023/09/07 03:20:13;;;;;;;10.95;6.93;;;;;;;17.14;100.00;101802.81;5073450;28;20048;-55
2023/09/07 03:22:45;;;;;;;10.60;7.63;;;;;;;17.10;100.00;101796.91;5068210;28;20507;-54
2023/09/07 03:25:14;;;;;;;9.43;7.15;;;;;;;17.10;100.00;101798.69;5072083;28;20044;-55
2023/09/07 03:27:43;;;;;;;10.45;7.15;;;;;;;17.06;100.00;101796.28;5071379;28;20054;-55
2023/09/07 03:30:12;;;;;;;10.75;6.82;;;;;;;17.09;100.00;101789.91;5070594;28;20519;-55
2023/09/07 03:32:41;;;;;;;10.90;7.43;;;;;;;17.06;100.00;101785.66;5073744;28;20113;-62
2023/09/07 03:35:10;;;;;;;11.80;7.45;;;;;;;17.05;100.00;101789.28;5073859;28;20126;-62
2023/09/07 03:37:39;;;;;;;11.68;7.28;;;;;;;17.05;100.00;101789.28;5074409;28;20033;-63
2023/09/07 03:40:10;;;;;;;9.60;6.93;;;;;;;17.01;100.00;101782.50;5074908;28;20066;-62
2023/09/07 03:42:39;;;;;;;12.43;8.13;;;;;;;16.98;100.00;101787.25;5077266;28;20476;-62
2023/09/07 03:45:08;;;;;;;9.32;7.10;;;;;;;16.96;100.00;101786.50;5074784;28;20060;-63
2023/09/07 03:47:36;;;;;;;10.90;7.57;;;;;;;16.99;100.00;101784.47;5084680;28;20076;-62
2023/09/07 03:50:06;;;;;;;11.45;7.63;;;;;;;17.04;100.00;101782.28;5074900;28;20047;-62
2023/09/07 03:52:34;;;;;;;11.73;7.55;;;;;;;16.99;100.00;101781.81;5073417;28;20052;-62
2023/09/07 03:55:05;;;;;;;11.48;7.30;;;;;;;16.98;100.00;101787.25;5068675;28;20110;-63
2023/09/07 03:57:35;;;;;;;10.82;7.63;;;;;;;16.98;100.00;101781.94;5073844;28;20036;-62
2023/09/07 04:00:07;;;;;;;10.00;7.40;;;;;;;16.98;100.00;101781.94;5073865;28;20111;-61
2023/09/07 04:02:36;;;;;;;11.88;8.43;;;;;;;16.93;100.00;101782.25;5072776;28;20052;-61
2023/09/07 04:05:06;;;;;;;10.30;7.82;;;;;;;17.00;100.00;101787.94;5073907;28;20044;-61
2023/09/07 04:07:34;;;;;;;9.77;7.85;;;;;;;16.94;100.00;101791.94;5070699;28;20041;-62
2023/09/07 04:10:03;;;;;;;11.30;7.90;;;;;;;16.95;100.00;101787.47;5071849;28;20056;-61
2023/09/07 04:12:34;;;;;;;9.23;7.35;;;;;;;16.95;100.00;101782.16;5073112;28;20075;-61
2023/09/07 04:15:03;;;;;;;9.63;7.72;;;;;;;17.02;100.00;101794.84;5072740;28;20109;-62
2023/09/07 04:17:39;;;;;;;11.15;7.60;;;;;;;16.90;100.00;101786.00;5072782;28;20046;-63
2023/09/07 04:20:11;;;;;;;9.55;7.07;;;;;;;16.92;100.00;101779.72;5074433;28;20087;-62
2023/09/07 04:22:40;;;;;;;10.65;7.38;;;;;;;16.92;100.00;101788.56;5071624;28;20504;-61
2023/09/07 04:25:09;;;;;;;10.25;7.68;;;;;;;16.90;100.00;101788.66;5073280;28;20423;-62
2023/09/07 04:27:39;;;;;;;9.70;7.47;;;;;;;16.82;100.00;101783.06;5073072;28;20041;-62
2023/09/07 04:30:09;;;;;;;12.45;7.72;;;;;;;16.75;100.00;101784.50;5073922;28;20059;-62
2023/09/07 04:32:38;;;;;;;10.18;7.55;;;;;;;16.68;100.00;101789.44;5071646;28;20056;-62
2023/09/07 04:35:08;;;;;;;10.93;7.68;;;;;;;16.71;100.00;101786.56;5077298;28;20048;-63
2023/09/07 04:37:36;;;;;;;11.10;7.45;;;;;;;16.64;100.00;101785.31;5073661;28;20055;-62
2023/09/07 04:40:07;;;;;;;11.88;7.80;;;;;;;16.64;100.00;101780.00;5073059;28;20490;-62
2023/09/07 04:42:36;;;;;;;10.82;8.60;;;;;;;16.55;100.00;101786.00;5070756;28;20557;-62
2023/09/07 04:45:06;;;;;;;13.20;8.35;;;;;;;16.48;100.00;101776.81;5071368;28;20052;-62
2023/09/07 04:47:36;;;;;;;12.93;8.70;;;;;;;16.46;100.00;101782.25;5070313;28;20090;-62
2023/09/07 04:50:07;;;;;;;14.00;9.20;;;;;;;16.50;100.00;101782.88;5071212;28;20047;-62
2023/09/07 04:52:35;;;;;;;11.98;9.02;;;;;;;16.52;100.00;101781.81;5069738;28;20080;-62
2023/09/07 04:55:05;;;;;;;15.85;9.60;;;;;;;16.56;100.00;101787.72;5073467;28;20056;-62
2023/09/07 04:57:33;;;;;;;14.35;9.50;;;;;;;16.56;100.00;101793.88;5072858;28;20072;-62
2023/09/07 05:00:03;;;;;;;11.90;8.65;;;;;;;16.49;100.00;101795.28;5071519;28;20068;-62
2023/09/07 05:02:38;;;;;;;13.27;9.57;;;;;;;16.51;100.00;101798.69;5071721;28;20567;-63
2023/09/07 05:05:07;;;;;;;12.77;8.25;;;;;;;16.52;100.00;101794.22;5073202;28;20045;-57
2023/09/07 05:07:36;;;;;;;13.88;8.98;;;;;;;16.50;100.00;101799.66;5070934;28;20534;-62
2023/09/07 05:10:06;;;;;;;12.50;9.45;;;;;;;16.50;100.00;101798.81;5070251;28;20525;-62
2023/09/07 05:12:35;;;;;;;11.98;8.70;;;;;;;16.55;100.00;101799.28;5068427;28;20048;-56
2023/09/07 05:15:06;;;;;;;13.63;9.68;;;;;;;16.50;100.00;101799.66;5071656;28;20048;-62
2023/09/07 05:17:36;;;;;;;11.63;9.52;;;;;;;16.51;100.00;101804.00;5068156;28;20064;-56
2023/09/07 05:20:06;;;;;;;12.13;9.57;;;;;;;16.52;100.00;101808.34;5066485;28;20049;-56
2023/09/07 05:22:37;;;;;;;13.07;9.30;;;;;;;16.51;100.00;101806.66;5070295;28;20056;-63
2023/09/07 05:25:06;;;;;;;12.30;9.80;;;;;;;16.48;100.00;101812.19;5071881;28;20483;-63
2023/09/07 05:27:35;;;;;;;14.05;9.15;;;;;;;16.52;100.00;101810.16;5068973;28;20052;-62
2023/09/07 05:30:05;;;;;;;11.57;8.90;;;;;;;16.52;100.00;101804.84;5070986;28;20109;-63
2023/09/07 05:32:34;;;;;;;11.85;9.23;;;;;;;16.56;100.00;101808.94;5078466;28;20121;-62
2023/09/07 05:35:04;;;;;;;13.80;9.50;;;;;;;16.55;100.00;101816.09;5077022;28;20068;-63
2023/09/07 05:37:35;;;;;;;13.90;9.68;;;;;;;16.54;100.00;101814.38;5074424;28;20402;-62
2023/09/07 05:40:05;;;;;;;11.77;9.02;;;;;;;16.60;100.00;101815.72;5069116;28;20048;-62
2023/09/07 05:42:36;;;;;;;12.77;9.40;;;;;;;16.57;100.00;101818.63;5077063;28;20091;-63
2023/09/07 05:45:05;;;;;;;10.93;9.02;;;;;;;16.60;100.00;101820.19;5084091;28;20044;-62
2023/09/07 05:47:33;;;;;;;12.75;10.32;;;;;;;16.61;100.00;101820.09;5073214;28;20044;-62
2023/09/07 05:50:04;;;;;;;12.95;9.38;;;;;;;16.62;100.00;101823.56;5074011;28;20044;-62
2023/09/07 05:52:32;;;;;;;12.88;9.20;;;;;;;16.62;100.00;101823.56;5072076;28;20044;-63
2023/09/07 05:55:01;;;;;;;13.85;10.13;;;;;;;16.62;100.00;101827.09;5077597;28;20497;-63
2023/09/07 05:57:30;;;;;;;12.45;9.65;;;;;;;16.63;100.00;101826.09;5075230;28;20116;-63
2023/09/07 05:59:58;;;;;;;12.48;10.35;;;;;;;16.70;100.00;101826.50;5070867;28;20510;-63
2023/09/07 06:02:27;;;;;;;13.52;10.23;;;;;;;16.77;100.00;101832.19;5068960;28;20102;-63
2023/09/07 06:04:56;;;;;;;13.82;10.43;;;;;;;16.77;100.00;101841.03;5068697;28;20074;-63
2023/09/07 06:07:26;;;;;;;15.45;9.77;;;;;;;16.80;100.00;101842.59;5076447;28;20053;-56
2023/09/07 06:09:54;;;;;;;13.65;9.60;;;;;;;16.81;100.00;101845.16;5087249;28;20836;-56
2023/09/07 06:12:23;;;;;;;12.88;9.70;;;;;;;16.89;100.00;101847.22;5083447;28;20051;-55
2023/09/07 06:14:52;;;;;;;13.00;9.55;;;;;;;16.96;100.00;101853.78;5071883;28;20447;-56
2023/09/07 06:17:20;;;;;;;13.57;10.35;;;;;;;17.04;100.00;101859.34;5075487;28;20059;-55
2023/09/07 06:19:49;;;;;;;13.95;9.75;;;;;;;17.08;100.00;101854.63;5077423;28;20060;-54
2023/09/07 06:22:17;;;;;;;13.35;10.35;;;;;;;17.15;100.00;101857.66;5076720;28;20411;-55
2023/09/07 06:24:47;;;;;;;14.70;10.05;;;;;;;17.22;100.00;101853.59;5073709;28;20078;-54
2023/09/07 06:27:16;;;;;;;13.18;9.85;;;;;;;17.36;100.00;101856.00;5079977;28;20102;-53
2023/09/07 06:29:44;;;;;;;13.73;10.23;;;;;;;17.35;100.00;101854.31;5076712;28;20052;-55
2023/09/07 06:32:13;;;;;;;12.75;10.00;;;;;;;17.38;100.00;101859.41;5076023;28;20036;-55
2023/09/07 06:34:41;;;;;;;13.20;9.13;;;;;;;17.45;100.00;101865.09;5075564;28;20464;-55
2023/09/07 06:37:10;;;;;;;13.23;10.32;;;;;;;17.56;100.00;101859.78;5080240;28;20050;-54
2023/09/07 06:39:39;;;;;;;13.07;9.85;;;;;;;17.64;100.00;101864.50;5087769;28;20064;-54
2023/09/07 06:42:09;;;;;;;11.25;9.45;;;;;;;17.72;100.00;101861.19;5083349;28;20044;-53
2023/09/07 06:44:38;;;;;;;12.00;10.05;;;;;;;17.82;100.00;101867.50;5084410;28;20076;-55
2023/09/07 06:47:06;;;;;;;12.32;9.82;;;;;;;17.86;100.00;101874.25;5081699;28;20056;-55
2023/09/07 06:49:36;;;;;;;12.55;9.45;;;;;;;17.92;100.00;101870.28;5076899;28;20535;-55
2023/09/07 06:52:05;;;;;;;13.93;9.77;;;;;;;18.01;100.00;101868.69;5083596;28;20080;-54
2023/09/07 06:54:34;;;;;;;12.70;9.88;;;;;;;18.11;100.00;101874.13;5078950;28;20040;-55
2023/09/07 06:57:02;;;;;;;13.07;10.35;;;;;;;18.26;100.00;101872.06;5085699;28;20056;-55
2023/09/07 06:59:32;;;;;;;13.45;9.90;;;;;;;18.27;100.00;101876.38;5073643;28;20040;-55
2023/09/07 07:02:04;;;;;;;12.60;9.30;;;;;;;18.38;100.00;101873.69;5071016;28;20053;-53
2023/09/07 07:04:33;;;;;;;13.80;9.93;;;;;;;18.49;100.00;101867.50;5069595;28;20052;-54
2023/09/07 07:07:04;;;;;;;13.18;10.50;;;;;;;18.58;100.00;101872.91;5070188;28;20042;-55
2023/09/07 07:09:33;;;;;;;10.40;8.38;;;;;;;18.64;100.00;101860.88;5073933;28;20040;-54
2023/09/07 07:12:02;;;;;;;11.98;9.30;;;;;;;18.76;100.00;101867.00;5079612;28;20152;-54
2023/09/07 07:14:31;;;;;;;12.07;9.23;;;;;;;18.96;100.00;101875.16;5078416;28;20336;-54
2023/09/07 07:17:01;;;;;;;12.43;9.38;;;;;;;19.06;100.00;101871.59;5083079;28;20052;-54
2023/09/07 07:19:30;;;;;;;13.57;10.15;;;;;;;19.15;100.00;101871.78;5076760;28;20044;-55
2023/09/07 07:21:58;;;;;;;11.55;8.82;;;;;;;19.24;100.00;101877.16;5073330;28;20055;-55
2023/09/07 07:24:27;;;;;;;13.45;9.52;;;;;;;19.40;100.00;101876.69;5069113;28;20036;-54
2023/09/07 07:26:56;;;;;;;12.85;8.63;;;;;;;19.51;100.00;101874.88;5080231;28;20055;-54
2023/09/07 07:29:24;;;;;;;11.95;9.27;;;;;;;19.67;100.00;101877.06;5092497;28;20097;-54
2023/09/07 07:31:54;;;;;;;13.52;9.30;;;;;;;19.87;100.00;101873.50;5079260;28;20051;-53
2023/09/07 07:34:23;;;;;;;16.17;9.30;;;;;;;19.99;100.00;101881.41;5078032;28;20246;-54
2023/09/07 07:36:51;;;;;;;12.13;8.65;;;;;;;20.14;100.00;101873.84;5080233;28;20833;-54
2023/09/07 07:39:20;;;;;;;11.80;9.40;;;;;;;20.25;100.00;101879.91;5068184;28;20052;-55
2023/09/07 07:41:49;;;;;;;13.70;8.55;;;;;;;20.40;100.00;101879.53;5071754;28;20044;-54
2023/09/07 07:44:17;;;;;;;9.98;8.18;;;;;;;20.60;100.00;101883.03;5082090;28;20051;-53
2023/09/07 07:46:45;;;;;;;10.27;8.25;;;;;;;20.74;100.00;101890.66;5069761;28;20060;-54
2023/09/07 07:49:16;;;;;;;12.98;9.70;;;;;;;20.93;100.00;101891.63;5072755;28;20510;-54
2023/09/07 07:51:44;;;;;;;12.07;9.23;;;;;;;21.06;100.00;101886.81;5072001;28;20498;-54
2023/09/07 07:54:13;;;;;;;12.60;9.18;;;;;;;21.25;100.00;101890.44;5073413;28;20116;-54
2023/09/07 07:56:41;;;;;;;13.20;8.52;;;;;;;21.44;100.00;101890.38;5072663;28;20060;-54
2023/09/07 07:59:10;;;;;;;12.60;8.23;;;;;;;21.66;100.00;101891.03;5073244;28;20041;-54
2023/09/07 08:01:38;;;;;;;10.50;8.07;;;;;;;21.85;100.00;101887.41;5072205;28;20429;-54
2023/09/07 08:04:07;;;;;;;12.85;9.10;;;;;;;22.02;100.00;101885.78;5070313;28;20051;-54
2023/09/07 08:06:37;;;;;;;11.95;8.77;;;;;;;22.25;100.00;101882.66;5070937;28;20048;-54
2023/09/07 08:09:06;;;;;;;12.13;8.25;;;;;;;22.41;100.00;101882.84;5070738;28;20384;-54
2023/09/07 08:11:34;;;;;;;13.23;8.40;;;;;;;22.64;100.00;101865.47;5068875;28;20052;-54
2023/09/07 08:14:03;;;;;;;11.32;7.55;;;;;;;22.90;100.00;101876.22;5071214;28;20052;-54
2023/09/07 08:16:31;;;;;;;13.50;9.15;;;;;;;23.05;100.00;101877.31;5073072;28;20053;-54
2023/09/07 08:19:00;;;;;;;11.23;7.55;;;;;;;23.28;100.00;101879.53;5075033;28;20047;-54
2023/09/07 08:21:29;;;;;;;11.30;7.80;;;;;;;23.48;100.00;101877.44;5083608;28;20065;-54
2023/09/07 08:24:00;;;;;;;11.85;7.85;;;;;;;23.70;100.00;101867.16;5076130;28;20032;-54
2023/09/07 08:26:28;;;;;;;10.88;8.27;;;;;;;23.89;100.00;101871.44;5071958;28;20403;-54
2023/09/07 08:28:56;;;;;;;10.80;7.90;;;;;;;24.08;100.00;101865.78;5069388;28;20044;-53
2023/09/07 08:31:26;;;;;;;10.88;8.55;;;;;;;24.32;100.00;101863.28;5072641;28;20024;-54
2023/09/07 08:33:55;;;;;;;12.65;8.10;;;;;;;24.46;100.00;101863.47;5074958;28;20507;-54
2023/09/07 08:36:23;;;;;;;12.00;8.57;;;;;;;24.57;100.00;101862.28;5067552;28;20044;-54
2023/09/07 08:38:53;;;;;;;10.60;7.90;;;;;;;24.75;100.00;101855.94;5067029;28;20499;-55
2023/09/07 08:41:24;;;;;;;11.18;9.10;;;;;;;24.89;100.00;101852.53;5068799;28;20058;-54
2023/09/07 08:43:55;;;;;;;11.88;7.90;;;;;;;25.02;100.00;101853.88;5067613;28;20052;-54
2023/09/07 08:46:24;;;;;;;11.20;8.57;;;;;;;25.17;100.00;101854.84;5069056;28;20124;-54
2023/09/07 08:48:55;;;;;;;12.57;8.50;;;;;;;25.28;100.00;101845.56;5071308;28;20044;-51
2023/09/07 08:51:27;;;;;;;13.25;7.90;;;;;;;25.52;100.00;101851.91;5068698;28;20064;-61
2023/09/07 08:53:56;;;;;;;11.38;8.18;;;;;;;25.69;100.00;101848.13;5065398;28;20067;-61
2023/09/07 08:56:26;;;;;;;10.30;7.28;;;;;;;25.97;100.00;101853.88;5068793;28;20527;-61
2023/09/07 08:58:55;;;;;;;12.02;8.13;;;;;;;26.18;100.00;101854.25;5069376;28;20049;-61
2023/09/07 09:01:23;;;;;;;9.85;7.38;;;;;;;26.39;100.00;101849.03;5068540;28;20052;-61
2023/09/07 09:03:52;;;;;;;9.32;7.22;;;;;;;26.60;100.00;101851.06;5068197;28;20051;-61
2023/09/07 09:06:23;;;;;;;12.07;7.10;;;;;;;26.69;100.00;101837.50;5072058;28;20064;-60
2023/09/07 09:08:53;;;;;;;12.25;8.00;;;;;;;26.86;100.00;101843.59;5071741;28;20102;-61
2023/09/07 09:11:22;;;;;;;11.73;7.22;;;;;;;27.01;100.00;101847.19;5071777;28;20049;-60
2023/09/07 09:13:54;;;;;;;10.68;6.45;;;;;;;27.09;100.00;101843.53;5071549;28;20051;-60
2023/09/07 09:16:22;;;;;;;9.67;6.83;;;;;;;27.38;100.00;101839.16;5067944;28;20056;-60
2023/09/07 09:18:52;;;;;;;9.80;7.22;;;;;;;27.60;100.00;101846.31;5067947;28;20069;-60
2023/09/07 09:21:21;;;;;;;11.18;6.35;;;;;;;27.82;100.00;101841.78;5068065;28;20052;-60
2023/09/07 09:23:51;;;;;;;8.55;6.00;;;;;;;28.07;100.00;101832.53;5068420;28;20121;-55
2023/09/07 09:26:20;;;;;;;8.55;4.60;;;;;;;28.24;100.00;101831.25;5068694;28;20051;-60
2023/09/07 09:28:50;;;;;;;6.88;4.00;;;;;;;28.45;100.00;101827.66;5068915;28;20050;-61
2023/09/07 09:31:21;;;;;;;11.30;4.50;;;;;;;28.59;100.00;101823.22;5071739;28;20045;-61
2023/09/07 09:33:51;;;;;;;7.47;4.10;;;;;;;28.82;100.00;101827.56;5069935;28;20519;-61
2023/09/07 09:36:21;;;;;;;10.50;4.28;;;;;;;29.07;100.00;101825.22;5067391;28;20040;-61
2023/09/07 09:38:52;;;;;;;5.82;3.25;;;;;;;29.12;94.27;101825.47;5067529;28;20499;-61
2023/09/07 09:41:21;;;;;;;7.38;3.38;;;;;;;29.15;84.60;101821.50;5070298;28;20460;-60
2023/09/07 09:43:51;;;;;;;8.18;3.35;;;;;;;29.25;83.91;101821.19;5066630;28;20136;-60
2023/09/07 09:46:23;;;;;;;8.25;3.42;;;;;;;29.39;82.17;101816.66;5068143;28;20056;-61
2023/09/07 09:48:52;;;;;;;8.57;3.33;;;;;;;29.23;84.03;101815.91;5067309;28;20094;-60
2023/09/07 09:51:22;;;;;;;8.50;3.72;;;;;;;29.56;81.98;101806.28;5067824;28;20165;-59
2023/09/07 09:53:52;;;;;;;7.57;3.55;;;;;;;29.72;79.46;101808.63;5065631;28;20062;-60
2023/09/07 09:56:21;;;;;;;6.63;3.40;;;;;;;29.56;77.17;101811.72;5067419;28;20048;-60
2023/09/07 09:58:50;;;;;;;7.40;3.70;;;;;;;29.54;78.78;101803.78;5068970;28;20041;-60
2023/09/07 10:01:18;;;;;;;6.03;3.38;;;;;;;29.79;80.12;101800.50;5069138;28;20044;-60
2023/09/07 10:03:50;;;;;;;7.25;3.20;;;;;;;30.21;76.62;101795.78;5066870;28;20068;-60
2023/09/07 10:06:21;;;;;;;7.60;3.53;;;;;;;30.29;76.47;101806.44;5067361;28;20088;-60
2023/09/07 10:08:59;;;;;;;6.65;3.40;;;;;;;29.86;72.84;101800.56;5071203;28;20395;-60
2023/09/07 10:11:31;;;;;;;8.02;3.60;;;;;;;29.83;72.14;101794.50;5069204;28;20182;-61
2023/09/07 10:14:03;;;;;;;7.07;3.40;;;;;;;30.01;73.24;101793.91;5068078;28;20109;-60
2023/09/07 10:16:43;;;;;;;6.40;3.13;;;;;;;29.93;72.55;101787.88;5069946;28;20082;-60
2023/09/07 10:19:20;;;;;;;9.43;4.00;;;;;;;30.15;73.77;101788.50;5071077;28;20043;-60
2023/09/07 10:21:50;;;;;;;6.60;3.50;;;;;;;30.31;72.76;101779.94;5070787;28;20035;-60
2023/09/07 10:24:26;;;;;;;7.47;3.60;;;;;;;30.51;72.51;101781.84;5070759;28;20075;-61
2023/09/07 10:26:59;;;;;;;6.30;3.20;;;;;;;30.44;74.37;101781.84;5071284;28;20418;-60
2023/09/07 10:29:27;;;;;;;9.40;3.70;;;;;;;30.39;73.18;101781.63;5070786;28;20056;-60
2023/09/07 10:31:56;;;;;;;7.05;3.45;;;;;;;30.52;74.90;101770.78;5071073;28;20132;-60
2023/09/07 10:34:39;;;;;;;6.60;3.60;;;;;;;31.08;73.52;101768.56;5069262;28;20060;-60
2023/09/07 10:37:10;;;;;;;;;;;;;;;31.43;68.40;101768.22;5066878;28;20044;-60
2023/09/07 10:39:42;;;;;;;6.93;3.42;;;;;;;31.48;68.23;101764.81;5067851;28;19934;-60
2023/09/07 10:42:21;;;;;;;6.47;3.40;;;;;;;31.98;69.04;101759.50;5069310;28;20128;-60
2023/09/07 10:44:49;;;;;;;6.35;3.40;;;;;;;32.06;65.40;101761.13;5070897;28;20044;-60
2023/09/07 10:47:18;;;;;;;6.35;3.35;;;;;;;32.21;64.63;101758.09;5070620;28;20123;-60
2023/09/07 10:49:48;;;;;;;10.82;3.50;;;;;;;32.41;61.92;101757.91;5068006;28;20040;-60
2023/09/07 10:52:18;;;;;;;4.75;3.00;;;;;;;32.53;60.37;101760.72;5065985;28;20040;-60
2023/09/07 10:54:56;;;;;;;10.50;3.50;;;;;;;32.62;60.00;101753.09;5067020;28;20061;-60
2023/09/07 10:57:25;;;;;;;8.20;3.60;;;;;;;32.80;59.98;101757.75;5066220;28;20431;-60
2023/09/07 10:59:55;;;;;;;8.95;3.40;;;;;;;32.59;59.80;101754.38;5068981;28;20050;-60
2023/09/07 11:02:23;;;;;;;6.30;3.17;;;;;;;32.74;58.71;101755.91;5070540;28;20048;-60
2023/09/07 11:04:54;;;;;;;7.38;3.50;;;;;;;32.77;59.23;101750.84;5069008;28;20052;-54
2023/09/07 11:07:22;;;;;;;5.60;3.28;;;;;;;33.12;56.06;101747.50;5068373;28;20049;-54
2023/09/07 11:09:52;;;;;;;6.25;3.30;;;;;;;33.45;57.88;101745.44;5066780;28;20051;-54
2023/09/07 11:12:22;;;;;;;5.57;3.22;;;;;;;33.50;56.58;101753.72;5066830;28;20047;-54
2023/09/07 11:14:51;;;;;;;6.32;3.47;;;;;;;33.82;58.51;101751.59;5065660;28;20499;-60
2023/09/07 11:17:26;;;;;;;6.68;3.33;;;;;;;33.73;55.76;101750.22;5068060;28;20044;-60
2023/09/07 11:19:56;;;;;;;5.53;2.83;;;;;;;33.90;53.84;101741.41;5070277;28;20309;-61
2023/09/07 11:22:25;;;;;;;6.00;3.22;;;;;;;33.68;54.47;101736.47;5066413;28;20071;-54
2023/09/07 11:24:54;;;;;;;5.35;3.08;;;;;;;33.55;54.24;101734.78;5063507;28;20054;-54